Time;durP1;ratioP1;P1;durP2;ratioP2;P2;SDS_P1;SDS_P2;PMS_P1;PMS_P2;Temp;Humidity;BMP_temperature;BMP_pressure;BME280_temperature;BME280_humidity;BME280_pressure;Samples;Min_cycle;Max_cycle;Signal;HPM_P1;HPM_P2
2021/10/11 00:01:01;;;;;;;17.00;8.73;;;;;;;;;;5025665;28;20409;-68
2021/10/11 00:03:27;;;;;;;14.20;7.97;;;;;;;;;;5016436;28;20029;-68
2021/10/11 00:05:53;;;;;;;11.18;7.63;;;;;;;;;;5030360;28;20067;-68
2021/10/11 00:08:19;;;;;;;13.68;8.32;;;;;;;;;;5014873;28;20389;-69
2021/10/11 00:10:44;;;;;;;13.65;8.38;;;;;;;;;;5023959;28;20029;-68
2021/10/11 00:13:10;;;;;;;10.80;7.60;;;;;;;;;;5030726;28;20029;-68
2021/10/11 00:15:35;;;;;;;11.13;8.18;;;;;;;;;;5021850;28;20034;-68
2021/10/11 00:18:01;;;;;;;10.43;7.68;;;;;;;;;;5019405;28;20030;-68
2021/10/11 00:20:27;;;;;;;11.20;7.60;;;;;;;;;;5022068;28;20030;-68
2021/10/11 00:22:52;;;;;;;12.82;7.85;;;;;;;;;;5028577;28;20025;-68
2021/10/11 00:25:18;;;;;;;11.43;7.70;;;;;;;;;;5023039;28;20026;-68
2021/10/11 00:27:44;;;;;;;13.20;8.63;;;;;;;;;;5022477;28;20108;-68
2021/10/11 00:30:11;;;;;;;12.88;8.90;;;;;;;;;;5021499;28;20454;-70
2021/10/11 00:32:39;;;;;;;12.27;8.55;;;;;;;;;;5032516;28;20064;-69
2021/10/11 00:35:05;;;;;;;11.63;8.07;;;;;;;;;;5031166;28;20044;-68
2021/10/11 00:37:31;;;;;;;11.65;7.90;;;;;;;;;;5042374;28;20029;-69
2021/10/11 00:39:56;;;;;;;11.60;8.38;;;;;;;;;;5033170;28;20057;-69
2021/10/11 00:42:22;;;;;;;12.13;8.60;;;;;;;;;;5010872;28;20088;-69
2021/10/11 00:44:48;;;;;;;12.68;8.05;;;;;;;;;;5020155;28;20377;-69
2021/10/11 00:47:15;;;;;;;12.52;7.85;;;;;;;;;;5030363;28;20096;-69
2021/10/11 00:49:40;;;;;;;11.25;8.20;;;;;;;;;;5027762;28;20026;-69
2021/10/11 00:52:06;;;;;;;13.40;8.63;;;;;;;;;;5026558;28;20288;-69
2021/10/11 00:54:32;;;;;;;14.10;8.63;;;;;;;;;;5029905;28;20473;-69
2021/10/11 00:56:58;;;;;;;13.93;8.10;;;;;;;;;;5031146;28;20113;-69
2021/10/11 00:59:24;;;;;;;12.38;7.80;;;;;;;;;;5026286;28;20124;-69
2021/10/11 01:01:49;;;;;;;10.77;7.47;;;;;;;;;;5028123;28;20035;-69
2021/10/11 01:04:14;;;;;;;10.43;7.90;;;;;;;;;;5034088;28;20434;-69
2021/10/11 01:06:41;;;;;;;14.02;7.28;;;;;;;;;;5033867;28;20044;-69
2021/10/11 01:09:10;;;;;;;10.65;7.13;;;;;;;;;;5033649;28;20488;-69
2021/10/11 01:11:39;;;;;;;11.77;6.82;;;;;;;;;;5015627;28;20372;-68
2021/10/11 01:14:06;;;;;;;10.32;7.47;;;;;;;;;;5015376;28;20030;-69
2021/10/11 01:16:32;;;;;;;11.07;7.28;;;;;;;;;;5017923;28;20080;-68
2021/10/11 01:18:57;;;;;;;11.45;6.97;;;;;;;;;;5014779;28;20474;-69
2021/10/11 01:21:24;;;;;;;13.38;7.40;;;;;;;;;;5017525;28;20029;-68
2021/10/11 01:23:51;;;;;;;9.57;6.43;;;;;;;;;;5013657;28;20087;-68
2021/10/11 01:26:17;;;;;;;10.02;7.30;;;;;;;;;;5028490;28;20128;-68
2021/10/11 01:28:42;;;;;;;12.80;7.55;;;;;;;;;;5031825;28;20100;-68
2021/10/11 01:31:08;;;;;;;10.82;7.00;;;;;;;;;;5022283;28;20018;-69
2021/10/11 01:33:34;;;;;;;11.38;7.28;;;;;;;;;;5013638;28;20425;-68
2021/10/11 01:35:59;;;;;;;12.27;6.68;;;;;;;;;;5013851;28;20030;-69
2021/10/11 01:38:25;;;;;;;12.13;7.85;;;;;;;;;;5013628;28;20040;-69
2021/10/11 01:40:50;;;;;;;14.65;7.70;;;;;;;;;;5029225;28;20025;-69
2021/10/11 01:43:16;;;;;;;9.27;6.63;;;;;;;;;;5032262;28;20160;-68
2021/10/11 01:45:46;;;;;;;13.23;7.93;;;;;;;;;;5022499;28;20038;-71
2021/10/11 01:48:11;;;;;;;12.57;7.13;;;;;;;;;;5013456;28;20525;-69
2021/10/11 01:50:37;;;;;;;12.93;7.63;;;;;;;;;;5026907;28;20053;-69
2021/10/11 01:53:02;;;;;;;14.00;7.78;;;;;;;;;;5027764;28;20120;-69
2021/10/11 01:55:28;;;;;;;11.77;7.55;;;;;;;;;;5019824;28;20504;-69
2021/10/11 01:57:56;;;;;;;13.55;7.93;;;;;;;;;;5049831;28;20075;-69
2021/10/11 02:00:21;;;;;;;11.30;7.43;;;;;;;;;;5017951;28;20073;-68
2021/10/11 02:02:47;;;;;;;11.45;7.78;;;;;;;;;;5025979;28;20088;-69
2021/10/11 02:05:12;;;;;;;11.90;7.60;;;;;;;;;;5013469;28;20026;-68
2021/10/11 02:07:38;;;;;;;11.63;7.57;;;;;;;;;;5012737;28;20418;-68
2021/10/11 02:10:07;;;;;;;11.88;7.45;;;;;;;;;;5024440;28;20037;-69
2021/10/11 02:12:33;;;;;;;10.35;7.05;;;;;;;;;;5032794;28;20026;-68
2021/10/11 02:14:59;;;;;;;10.75;7.70;;;;;;;;;;5032466;28;20022;-68
2021/10/11 02:17:24;;;;;;;11.93;6.82;;;;;;;;;;5032725;28;20060;-69
2021/10/11 02:19:50;;;;;;;12.00;6.55;;;;;;;;;;5031222;28;20556;-69
2021/10/11 02:22:15;;;;;;;11.40;6.40;;;;;;;;;;5032310;28;20062;-69
2021/10/11 02:24:45;;;;;;;13.38;7.60;;;;;;;;;;5032197;28;20037;-69
2021/10/11 02:27:11;;;;;;;10.32;6.60;;;;;;;;;;5018158;28;20026;-69
2021/10/11 02:29:40;;;;;;;9.43;6.15;;;;;;;;;;5016332;28;20030;-69
2021/10/11 02:32:06;;;;;;;13.43;7.55;;;;;;;;;;5012604;28;20478;-69
2021/10/11 02:34:32;;;;;;;11.07;6.90;;;;;;;;;;5012632;28;20028;-69
2021/10/11 02:36:58;;;;;;;11.70;7.07;;;;;;;;;;5013205;28;20369;-68
2021/10/11 02:39:23;;;;;;;12.98;7.38;;;;;;;;;;5030505;28;20025;-68
2021/10/11 02:41:49;;;;;;;11.35;6.85;;;;;;;;;;5013163;28;20481;-68
2021/10/11 02:44:15;;;;;;;9.77;6.70;;;;;;;;;;5011954;28;20018;-68
2021/10/11 02:46:40;;;;;;;20.20;7.43;;;;;;;;;;5015500;28;20061;-68
2021/10/11 02:49:06;;;;;;;10.45;6.35;;;;;;;;;;5014917;28;20057;-68
2021/10/11 02:51:31;;;;;;;10.02;6.38;;;;;;;;;;5021031;28;20029;-68
2021/10/11 02:53:57;;;;;;;10.07;6.45;;;;;;;;;;5031912;28;20489;-68
2021/10/11 02:56:22;;;;;;;9.68;6.22;;;;;;;;;;5038133;28;20031;-68
2021/10/11 02:58:48;;;;;;;11.13;6.15;;;;;;;;;;5030549;28;20033;-68
2021/10/11 03:01:14;;;;;;;13.90;6.72;;;;;;;;;;5017805;28;20504;-69
2021/10/11 03:03:41;;;;;;;11.63;6.10;;;;;;;;;;5011571;28;20049;-69
2021/10/11 03:06:06;;;;;;;12.02;5.78;;;;;;;;;;5024445;28;20072;-69
2021/10/11 03:08:35;;;;;;;9.25;5.53;;;;;;;;;;5031047;28;20112;-69
2021/10/11 03:11:02;;;;;;;11.30;6.15;;;;;;;;;;5029470;28;20040;-69
2021/10/11 03:13:28;;;;;;;13.05;6.30;;;;;;;;;;5011878;28;20018;-69
2021/10/11 03:15:54;;;;;;;12.80;6.05;;;;;;;;;;5011673;28;20036;-69
2021/10/11 03:18:19;;;;;;;10.60;5.97;;;;;;;;;;5025472;28;20030;-69
2021/10/11 03:20:45;;;;;;;11.20;6.35;;;;;;;;;;5028789;28;20053;-69
2021/10/11 03:23:10;;;;;;;11.10;6.57;;;;;;;;;;5026691;28;20033;-68
2021/10/11 03:25:36;;;;;;;8.40;5.78;;;;;;;;;;5031434;28;20087;-69
2021/10/11 03:28:01;;;;;;;9.85;5.93;;;;;;;;;;5030469;28;20085;-68
2021/10/11 03:30:27;;;;;;;8.45;5.80;;;;;;;;;;5015067;28;20508;-69
2021/10/11 03:32:53;;;;;;;14.10;6.10;;;;;;;;;;5011488;28;20029;-69
2021/10/11 03:35:20;;;;;;;9.18;5.65;;;;;;;;;;5024860;28;20033;-68
2021/10/11 03:37:46;;;;;;;10.48;6.15;;;;;;;;;;5022227;28;20026;-68
2021/10/11 03:40:11;;;;;;;7.57;5.20;;;;;;;;;;5030904;28;20432;-68
2021/10/11 03:42:37;;;;;;;10.35;6.28;;;;;;;;;;5025915;28;20117;-69
2021/10/11 03:45:03;;;;;;;9.45;5.93;;;;;;;;;;5017050;28;20083;-69
2021/10/11 03:47:29;;;;;;;11.73;5.88;;;;;;;;;;5011583;28;20037;-69
2021/10/11 03:49:54;;;;;;;11.63;5.93;;;;;;;;;;5022191;28;20033;-68
2021/10/11 03:52:20;;;;;;;10.57;5.95;;;;;;;;;;5025924;28;20030;-68
2021/10/11 03:54:45;;;;;;;11.25;6.30;;;;;;;;;;5011554;28;20072;-68
2021/10/11 03:57:10;;;;;;;8.57;5.65;;;;;;;;;;5032562;28;20333;-68
2021/10/11 03:59:36;;;;;;;20.17;6.03;;;;;;;;;;5025831;28;20042;-68
2021/10/11 04:02:02;;;;;;;9.25;5.53;;;;;;;;;;5011039;28;20445;-68
2021/10/11 04:04:28;;;;;;;10.75;5.65;;;;;;;;;;5011084;28;20049;-69
2021/10/11 04:06:55;;;;;;;11.43;6.05;;;;;;;;;;5020150;28;20060;-68
2021/10/11 04:09:27;;;;;;;10.00;6.15;;;;;;;;;;5030581;28;20026;-68
2021/10/11 04:11:54;;;;;;;10.25;5.70;;;;;;;;;;5021345;28;20029;-69
2021/10/11 04:14:24;;;;;;;11.88;5.57;;;;;;;;;;5021547;28;20425;-69
2021/10/11 04:16:50;;;;;;;9.30;5.95;;;;;;;;;;5026526;28;20062;-69
2021/10/11 04:19:15;;;;;;;10.15;6.03;;;;;;;;;;5024757;28;20493;-70
2021/10/11 04:21:42;;;;;;;9.82;5.82;;;;;;;;;;5030769;28;20091;-69
2021/10/11 04:24:09;;;;;;;11.50;6.18;;;;;;;;;;5030336;28;20136;-69
2021/10/11 04:26:35;;;;;;;12.10;6.07;;;;;;;;;;5029456;28;20036;-69
2021/10/11 04:29:00;;;;;;;10.70;6.10;;;;;;;;;;5025123;28;20040;-69
2021/10/11 04:31:26;;;;;;;9.68;5.97;;;;;;;;;;5023604;28;20029;-69
2021/10/11 04:33:51;;;;;;;9.73;6.00;;;;;;;;;;5033869;28;20110;-69
2021/10/11 04:36:19;;;;;;;10.30;7.03;;;;;;;;;;5026731;28;20030;-69
2021/10/11 04:38:44;;;;;;;12.60;6.97;;;;;;;;;;5027854;28;20093;-69
2021/10/11 04:41:10;;;;;;;11.98;6.85;;;;;;;;;;5033843;28;20036;-69
2021/10/11 04:43:36;;;;;;;12.30;6.75;;;;;;;;;;5026505;28;20066;-69
2021/10/11 04:46:02;;;;;;;10.23;6.30;;;;;;;;;;5024333;28;20503;-69
2021/10/11 04:48:27;;;;;;;10.27;6.05;;;;;;;;;;5033629;28;20056;-69
2021/10/11 04:50:53;;;;;;;9.82;5.28;;;;;;;;;;5033956;28;20049;-69
2021/10/11 04:53:18;;;;;;;9.48;6.18;;;;;;;;;;5029562;28;20047;-69
2021/10/11 04:55:43;;;;;;;11.05;6.65;;;;;;;;;;5035761;28;20026;-71
2021/10/11 04:58:09;;;;;;;13.45;5.82;;;;;;;;;;5027454;28;20116;-69
2021/10/11 05:00:36;;;;;;;9.90;6.15;;;;;;;;;;5028263;28;20137;-69
2021/10/11 05:03:02;;;;;;;12.40;6.30;;;;;;;;;;5028336;28;20087;-69
2021/10/11 05:05:28;;;;;;;9.38;6.45;;;;;;;;;;5033362;28;20036;-69
2021/10/11 05:07:53;;;;;;;10.20;6.45;;;;;;;;;;5031199;28;20029;-69
2021/10/11 05:10:19;;;;;;;13.85;6.18;;;;;;;;;;5030747;28;20033;-69
2021/10/11 05:12:45;;;;;;;10.73;6.60;;;;;;;;;;5033580;28;20040;-69
2021/10/11 05:15:10;;;;;;;10.35;6.38;;;;;;;;;;5034072;28;20056;-69
2021/10/11 05:17:36;;;;;;;14.65;6.00;;;;;;;;;;5034113;28;20061;-68
2021/10/11 05:20:02;;;;;;;12.43;6.07;;;;;;;;;;5033989;28;20091;-68
2021/10/11 05:22:29;;;;;;;12.27;6.10;;;;;;;;;;5033786;28;20063;-68
2021/10/11 05:24:54;;;;;;;11.25;6.40;;;;;;;;;;5033006;28;20029;-69
2021/10/11 05:27:19;;;;;;;11.07;6.32;;;;;;;;;;5033358;28;20032;-69
2021/10/11 05:29:45;;;;;;;11.82;7.20;;;;;;;;;;5033345;28;20021;-68
2021/10/11 05:32:10;;;;;;;13.20;6.70;;;;;;;;;;5033359;28;20025;-69
2021/10/11 05:34:36;;;;;;;13.75;6.90;;;;;;;;;;5047193;28;20036;-69
2021/10/11 05:37:03;;;;;;;10.00;6.38;;;;;;;;;;5032798;28;20033;-69
2021/10/11 05:39:29;;;;;;;13.90;6.60;;;;;;;;;;5033282;28;20037;-69
2021/10/11 05:41:55;;;;;;;11.25;6.68;;;;;;;;;;5033166;28;20029;-69
2021/10/11 05:44:21;;;;;;;12.27;6.47;;;;;;;;;;5032815;28;20021;-69
2021/10/11 05:46:47;;;;;;;9.57;6.05;;;;;;;;;;5032340;28;20541;-68
2021/10/11 05:49:15;;;;;;;13.52;6.57;;;;;;;;;;5033153;28;20362;-68
2021/10/11 05:51:40;;;;;;;12.15;6.18;;;;;;;;;;5033541;28;20017;-69
2021/10/11 05:54:06;;;;;;;9.65;6.30;;;;;;;;;;5033031;28;20489;-69
2021/10/11 05:56:31;;;;;;;14.65;6.82;;;;;;;;;;5044899;28;20480;-69
2021/10/11 05:58:57;;;;;;;10.18;6.47;;;;;;;;;;5051831;28;20497;-68
2021/10/11 06:01:22;;;;;;;12.32;6.60;;;;;;;;;;5052974;28;20511;-69
2021/10/11 06:03:47;;;;;;;10.18;6.40;;;;;;;;;;5052876;28;20428;-68
2021/10/11 06:06:13;;;;;;;12.55;7.47;;;;;;;;;;5038350;28;20068;-68
2021/10/11 06:08:39;;;;;;;11.48;6.57;;;;;;;;;;5032988;28;20025;-69
2021/10/11 06:11:04;;;;;;;9.50;5.95;;;;;;;;;;5032528;28;20032;-69
2021/10/11 06:13:30;;;;;;;13.23;6.97;;;;;;;;;;5033057;28;20288;-68
2021/10/11 06:15:55;;;;;;;17.25;7.82;;;;;;;;;;5030582;28;20496;-69
2021/10/11 06:18:21;;;;;;;12.52;7.15;;;;;;;;;;5032538;28;20025;-69
2021/10/11 06:20:46;;;;;;;10.93;7.47;;;;;;;;;;5032710;28;20443;-69
2021/10/11 06:23:13;;;;;;;11.48;6.82;;;;;;;;;;5032366;28;20108;-69
2021/10/11 06:25:40;;;;;;;15.60;7.93;;;;;;;;;;5032269;28;20059;-69
2021/10/11 06:28:05;;;;;;;14.77;7.70;;;;;;;;;;5031589;28;20075;-70
2021/10/11 06:30:31;;;;;;;14.73;9.48;;;;;;;;;;5032466;28;20029;-72
2021/10/11 06:32:56;;;;;;;16.40;10.05;;;;;;;;;;5033413;28;20457;-71
2021/10/11 06:35:22;;;;;;;15.55;9.18;;;;;;;;;;5052235;28;20025;-70
2021/10/11 06:37:49;;;;;;;20.10;10.95;;;;;;;;;;5035766;28;20104;-69
2021/10/11 06:40:15;;;;;;;29.73;12.88;;;;;;;;;;5032202;28;20022;-70
2021/10/11 06:42:41;;;;;;;20.70;12.23;;;;;;;;;;5032071;28;20021;-69
2021/10/11 06:45:06;;;;;;;24.25;13.35;;;;;;;;;;5030788;28;20440;-69
2021/10/11 06:47:32;;;;;;;23.67;13.93;;;;;;;;;;5031848;28;20033;-69
2021/10/11 06:49:57;;;;;;;21.63;12.10;;;;;;;;;;5031860;28;20363;-69
2021/10/11 06:52:23;;;;;;;23.02;13.98;;;;;;;;;;5031889;28;20030;-69
2021/10/11 06:54:48;;;;;;;23.38;13.52;;;;;;;;;;5030688;28;20428;-69
2021/10/11 06:57:14;;;;;;;23.88;13.43;;;;;;;;;;5030770;28;20469;-69
2021/10/11 06:59:41;;;;;;;24.13;14.35;;;;;;;;;;5032752;28;20057;-69
2021/10/11 07:02:06;;;;;;;22.92;13.55;;;;;;;;;;5028925;28;20030;-68
2021/10/11 07:04:32;;;;;;;22.88;14.32;;;;;;;;;;5026355;28;20834;-69
2021/10/11 07:06:58;;;;;;;19.60;13.43;;;;;;;;;;5053166;28;20056;-69
2021/10/11 07:09:23;;;;;;;22.70;14.05;;;;;;;;;;5028052;28;20428;-70
2021/10/11 07:11:50;;;;;;;22.38;12.75;;;;;;;;;;5028353;28;20481;-69
2021/10/11 07:14:19;;;;;;;20.27;12.43;;;;;;;;;;5026090;28;20670;-70
2021/10/11 07:16:46;;;;;;;22.88;13.00;;;;;;;;;;5026422;28;20029;-68
2021/10/11 07:19:13;;;;;;;22.20;13.88;;;;;;;;;;5026191;28;20548;-68
2021/10/11 07:21:39;;;;;;;25.23;14.02;;;;;;;;;;5026494;28;20464;-68
2021/10/11 07:24:15;;;;;;;22.10;14.80;;;;;;;;;;5026147;28;20048;-68
2021/10/11 07:26:41;;;;;;;25.25;13.32;;;;;;;;;;5026203;28;20033;-70
2021/10/11 07:29:07;;;;;;;22.20;14.98;;;;;;;;;;5025735;28;20108;-68
2021/10/11 07:31:33;;;;;;;20.80;13.77;;;;;;;;;;5026874;28;20044;-67
2021/10/11 07:33:58;;;;;;;21.85;13.75;;;;;;;;;;5027110;28;20025;-67
2021/10/11 07:36:24;;;;;;;21.25;13.52;;;;;;;;;;5027598;28;20027;-68
2021/10/11 07:38:49;;;;;;;22.27;13.93;;;;;;;;;;5029081;28;20044;-68
2021/10/11 07:41:15;;;;;;;21.15;14.05;;;;;;;;;;5031277;28;20033;-67
2021/10/11 07:43:40;;;;;;;26.05;14.30;;;;;;;;;;5029572;28;20112;-68
2021/10/11 07:46:07;;;;;;;22.10;14.35;;;;;;;;;;5025967;28;20033;-68
2021/10/11 07:48:33;;;;;;;21.65;14.32;;;;;;;;;;5026149;28;20379;-67
2021/10/11 07:50:59;;;;;;;21.02;13.02;;;;;;;;;;5026765;28;20033;-68
2021/10/11 07:53:24;;;;;;;21.10;14.20;;;;;;;;;;5026334;28;20083;-69
2021/10/11 07:55:50;;;;;;;19.67;13.60;;;;;;;;;;5026645;28;20867;-70
2021/10/11 07:58:16;;;;;;;19.80;13.80;;;;;;;;;;5026954;28;20828;-70
2021/10/11 08:00:42;;;;;;;21.50;13.13;;;;;;;;;;5024981;28;20053;-69
2021/10/11 08:03:08;;;;;;;19.67;12.85;;;;;;;;;;5026142;28;20033;-69
2021/10/11 08:05:36;;;;;;;18.83;12.18;;;;;;;;;;5030582;28;20041;-70
2021/10/11 08:08:02;;;;;;;20.13;13.13;;;;;;;;;;5032617;28;20029;-68
2021/10/11 08:10:28;;;;;;;21.27;13.25;;;;;;;;;;5034442;28;20025;-68
2021/10/11 08:12:53;;;;;;;16.35;11.38;;;;;;;;;;5037129;28;20029;-68
2021/10/11 08:15:20;;;;;;;18.50;12.00;;;;;;;;;;5036946;28;20646;-68
2021/10/11 08:17:48;;;;;;;15.15;10.20;;;;;;;;;;5038247;28;20187;-68
2021/10/11 08:20:14;;;;;;;15.23;9.93;;;;;;;;;;5037204;28;20096;-68
2021/10/11 08:22:39;;;;;;;17.52;11.65;;;;;;;;;;5037292;28;20495;-68
2021/10/11 08:25:05;;;;;;;14.30;9.98;;;;;;;;;;5037478;28;20033;-70
2021/10/11 08:27:31;;;;;;;17.85;10.82;;;;;;;;;;5037288;28;20389;-69
2021/10/11 08:29:56;;;;;;;17.17;10.75;;;;;;;;;;5037456;28;20029;-69
2021/10/11 08:32:24;;;;;;;19.50;12.23;;;;;;;;;;5037745;28;20484;-69
2021/10/11 08:34:52;;;;;;;12.10;8.25;;;;;;;;;;5035790;28;20033;-69
2021/10/11 08:37:19;;;;;;;14.15;9.65;;;;;;;;;;5036366;28;20040;-70
2021/10/11 08:39:44;;;;;;;10.75;7.88;;;;;;;;;;5037470;28;20033;-70
2021/10/11 08:42:11;;;;;;;12.70;8.27;;;;;;;;;;5037607;28;20022;-69
2021/10/11 08:44:37;;;;;;;8.35;6.18;;;;;;;;;;5032916;28;20354;-69
2021/10/11 08:47:03;;;;;;;9.32;5.68;;;;;;;;;;5037866;28;20036;-68
2021/10/11 08:49:29;;;;;;;7.93;5.93;;;;;;;;;;5037207;28;20021;-68
2021/10/11 08:51:54;;;;;;;8.73;6.10;;;;;;;;;;5037635;28;20537;-68
2021/10/11 08:54:20;;;;;;;9.00;6.13;;;;;;;;;;5037842;28;20018;-68
2021/10/11 08:56:46;;;;;;;9.30;6.15;;;;;;;;;;5058104;28;20037;-69
2021/10/11 08:59:12;;;;;;;11.18;6.78;;;;;;;;;;5036781;28;20046;-69
2021/10/11 09:01:38;;;;;;;9.98;6.95;;;;;;;;;;5036867;28;20424;-68
2021/10/11 09:04:17;;;;;;;9.98;6.97;;;;;;;;;;5037111;28;20033;-69
2021/10/11 09:07:06;;;;;;;11.65;6.40;;;;;;;;;;5037877;28;20029;-68
2021/10/11 09:09:46;;;;;;;13.02;6.63;;;;;;;;;;5037723;28;20079;-71
2021/10/11 09:12:26;;;;;;;9.70;6.22;;;;;;;;;;5037315;28;20029;-69
2021/10/11 09:15:08;;;;;;;13.18;7.05;;;;;;;;;;5037321;28;20049;-68
2021/10/11 09:17:38;;;;;;;11.88;6.75;;;;;;;;;;5033749;28;20083;-69
2021/10/11 09:20:15;;;;;;;15.60;6.50;;;;;;;;;;5034105;28;20138;-68
2021/10/11 09:22:43;;;;;;;13.13;6.45;;;;;;;;;;5034225;28;20034;-70
2021/10/11 09:25:11;;;;;;;14.02;7.50;;;;;;;;;;5033216;28;20065;-68
2021/10/11 09:27:51;;;;;;;9.52;5.38;;;;;;;;;;5034182;28;20041;-68
2021/10/11 09:30:19;;;;;;;11.70;6.30;;;;;;;;;;5033536;28;20485;-71
2021/10/11 09:32:45;;;;;;;10.50;5.88;;;;;;;;;;5034067;28;20053;-69
2021/10/11 09:35:21;;;;;;;13.68;6.15;;;;;;;;;;5035378;28;20381;-68
2021/10/11 09:37:51;;;;;;;14.38;6.30;;;;;;;;;;5033521;28;20029;-69
2021/10/11 09:40:19;;;;;;;12.07;6.18;;;;;;;;;;5033037;28;20454;-69
2021/10/11 09:42:45;;;;;;;10.25;5.07;;;;;;;;;;5033725;28;20087;-68
2021/10/11 09:45:11;;;;;;;8.93;4.47;;;;;;;;;;5033509;28;20474;-69
2021/10/11 09:47:44;;;;;;;7.68;4.45;;;;;;;;;;5033591;28;20078;-70
2021/10/11 09:50:12;;;;;;;11.68;4.32;;;;;;;;;;5032596;28;20057;-68
2021/10/11 09:52:41;;;;;;;9.77;4.13;;;;;;;;;;5032581;28;20044;-68
2021/10/11 09:55:08;;;;;;;9.00;4.40;;;;;;;;;;5033479;28;20590;-69
2021/10/11 09:57:34;;;;;;;9.02;4.43;;;;;;;;;;5053794;28;20028;-68
2021/10/11 10:00:03;;;;;;;12.15;4.72;;;;;;;;;;5053640;28;20045;-68
2021/10/11 10:02:31;;;;;;;11.73;4.70;;;;;;;;;;5034159;28;20120;-68
2021/10/11 10:05:02;;;;;;;10.68;4.40;;;;;;;;;;5033499;28;20120;-69
2021/10/11 10:07:34;;;;;;;11.20;3.97;;;;;;;;;;5033040;28;20090;-68
2021/10/11 10:10:02;;;;;;;9.23;3.83;;;;;;;;;;5034055;28;20029;-67
2021/10/11 10:12:28;;;;;;;10.65;4.32;;;;;;;;;;5036023;28;20024;-69
2021/10/11 10:15:03;;;;;;;8.18;4.35;;;;;;;;;;5029454;28;20481;-68
2021/10/11 10:17:32;;;;;;;6.45;3.30;;;;;;;;;;5032310;28;20021;-68
2021/10/11 10:20:13;;;;;;;9.20;3.30;;;;;;;;;;5034877;28;20048;-69
2021/10/11 10:22:38;;;;;;;9.10;3.28;;;;;;;;;;5039062;28;20029;-68
2021/10/11 10:25:07;;;;;;;7.35;3.58;;;;;;;;;;5032466;28;20025;-68
2021/10/11 10:27:36;;;;;;;5.97;2.55;;;;;;;;;;5032765;28;20051;-69
2021/10/11 10:30:23;;;;;;;8.45;2.72;;;;;;;;;;5031730;28;20025;-69
2021/10/11 10:33:04;;;;;;;6.20;2.85;;;;;;;;;;5033071;28;20507;-68
2021/10/11 10:35:33;;;;;;;6.60;2.78;;;;;;;;;;5039126;28;20418;-68
2021/10/11 10:37:59;;;;;;;10.48;4.07;;;;;;;;;;5032420;28;20025;-69
2021/10/11 10:40:31;;;;;;;10.07;2.97;;;;;;;;;;5032467;28;20423;-69
2021/10/11 10:43:09;;;;;;;7.43;2.90;;;;;;;;;;5032870;28;20033;-69
2021/10/11 10:45:36;;;;;;;8.68;2.65;;;;;;;;;;5032790;28;20122;-68
2021/10/11 10:48:04;;;;;;;10.07;2.70;;;;;;;;;;5032758;28;20029;-69
2021/10/11 10:50:32;;;;;;;5.65;2.60;;;;;;;;;;5032888;28;20376;-69
2021/10/11 10:53:01;;;;;;;9.02;3.25;;;;;;;;;;5032847;28;20029;-68
2021/10/11 10:55:27;;;;;;;7.35;2.78;;;;;;;;;;5035168;28;20051;-68
2021/10/11 10:58:03;;;;;;;9.93;3.08;;;;;;;;;;5033339;28;20029;-69
2021/10/11 11:00:30;;;;;;;8.45;2.67;;;;;;;;;;5031085;28;20334;-69
2021/10/11 11:02:55;;;;;;;8.05;2.53;;;;;;;;;;5031709;28;20722;-68
2021/10/11 11:05:23;;;;;;;9.10;2.50;;;;;;;;;;5031206;28;20072;-68
2021/10/11 11:07:52;;;;;;;7.50;2.50;;;;;;;;;;5032102;28;20047;-68
2021/10/11 11:10:21;;;;;;;5.40;2.50;;;;;;;;;;5032133;28;20030;-68
2021/10/11 11:12:54;;;;;;;7.45;2.67;;;;;;;;;;5048047;28;20032;-67
2021/10/11 11:15:35;;;;;;;6.22;2.45;;;;;;;;;;5031439;28;20026;-68
2021/10/11 11:18:04;;;;;;;7.78;2.40;;;;;;;;;;5031020;28;20053;-68
2021/10/11 11:20:33;;;;;;;7.22;2.40;;;;;;;;;;5031494;28;20094;-68
2021/10/11 11:23:04;;;;;;;10.07;2.40;;;;;;;;;;5031199;28;20068;-68
2021/10/11 11:25:37;;;;;;;6.72;2.88;;;;;;;;;;5030970;28;20502;-68
2021/10/11 11:28:06;;;;;;;5.65;2.25;;;;;;;;;;5031081;28;20022;-69
2021/10/11 11:30:32;;;;;;;5.97;2.35;;;;;;;;;;5031122;28;20029;-68
2021/10/11 11:33:02;;;;;;;7.43;3.13;;;;;;;;;;5032324;28;20099;-68
2021/10/11 11:35:32;;;;;;;11.07;3.40;;;;;;;;;;5050879;28;20031;-68
2021/10/11 11:38:07;;;;;;;6.20;2.30;;;;;;;;;;5047195;28;20048;-68
2021/10/11 11:40:43;;;;;;;7.63;2.22;;;;;;;;;;5030206;28;20033;-68
2021/10/11 11:43:10;;;;;;;6.00;2.58;;;;;;;;;;5031546;28;20029;-69
2021/10/11 11:45:39;;;;;;;8.55;2.50;;;;;;;;;;5031546;28;20022;-69
2021/10/11 11:48:10;;;;;;;6.85;2.17;;;;;;;;;;5031273;28;20033;-68
2021/10/11 11:50:37;;;;;;;6.60;2.38;;;;;;;;;;5028927;28;20044;-68
2021/10/11 11:53:08;;;;;;;5.63;2.33;;;;;;;;;;5027471;28;20041;-68
2021/10/11 11:55:35;;;;;;;8.05;2.78;;;;;;;;;;5027864;28;20029;-69
2021/10/11 11:58:01;;;;;;;4.90;1.95;;;;;;;;;;5026497;28;20033;-68
2021/10/11 12:00:31;;;;;;;5.78;2.10;;;;;;;;;;5027824;28;20107;-68
2021/10/11 12:03:01;;;;;;;7.13;2.20;;;;;;;;;;5025532;28;20036;-69
2021/10/11 12:05:28;;;;;;;6.50;1.65;;;;;;;;;;5024832;28;21449;-68
2021/10/11 12:07:55;;;;;;;8.73;2.00;;;;;;;;;;5026165;28;20087;-69
2021/10/11 12:10:23;;;;;;;5.43;2.33;;;;;;;;;;5025984;28;20055;-69
2021/10/11 12:13:00;;;;;;;6.00;1.60;;;;;;;;;;5026327;28;20036;-69
2021/10/11 12:15:27;;;;;;;4.47;1.67;;;;;;;;;;5026174;28;20032;-68
2021/10/11 12:18:10;;;;;;;5.95;1.27;;;;;;;;;;5027057;28;20030;-68
2021/10/11 12:20:53;;;;;;;4.80;1.40;;;;;;;;;;5025879;28;20562;-68
2021/10/11 12:23:19;;;;;;;5.68;1.70;;;;;;;;;;5025461;28;20108;-70
2021/10/11 12:25:46;;;;;;;5.50;1.40;;;;;;;;;;5025587;28;20646;-69
2021/10/11 12:28:14;;;;;;;4.97;1.63;;;;;;;;;;5024580;28;20413;-67
2021/10/11 12:30:41;;;;;;;7.20;1.95;;;;;;;;;;5026336;28;20038;-67
2021/10/11 12:33:17;;;;;;;7.03;1.70;;;;;;;;;;5026438;28;20074;-66
2021/10/11 12:35:45;;;;;;;3.70;1.40;;;;;;;;;;5021559;28;20138;-67
2021/10/11 12:38:13;;;;;;;5.07;1.70;;;;;;;;;;5023334;28;20448;-68
2021/10/11 12:40:41;;;;;;;4.70;1.73;;;;;;;;;;5023691;28;20025;-67
2021/10/11 12:43:19;;;;;;;8.07;1.80;;;;;;;;;;5027638;28;20029;-67
2021/10/11 12:45:46;;;;;;;6.22;1.80;;;;;;;;;;5029194;28;20026;-68
2021/10/11 12:48:12;;;;;;;6.32;1.70;;;;;;;;;;5028325;28;20083;-67
2021/10/11 12:50:38;;;;;;;6.80;1.75;;;;;;;;;;5036779;28;20033;-68
2021/10/11 12:53:07;;;;;;;5.93;1.50;;;;;;;;;;5031321;28;20045;-69
2021/10/11 12:55:33;;;;;;;7.50;2.00;;;;;;;;;;5029268;28;20017;-68
2021/10/11 12:58:06;;;;;;;5.68;1.45;;;;;;;;;;5033582;28;20048;-69
2021/10/11 13:00:34;;;;;;;5.75;1.65;;;;;;;;;;5033214;28;20049;-70
2021/10/11 13:03:00;;;;;;;10.60;1.90;;;;;;;;;;5028160;28;20036;-70
2021/10/11 13:05:25;;;;;;;5.78;1.92;;;;;;;;;;5031214;28;20025;-69
2021/10/11 13:07:51;;;;;;;5.93;1.48;;;;;;;;;;5020663;28;20168;-70
2021/10/11 13:10:16;;;;;;;5.35;1.55;;;;;;;;;;5031816;28;20052;-69
2021/10/11 13:12:43;;;;;;;5.38;1.33;;;;;;;;;;5018311;28;20129;-69
2021/10/11 13:15:10;;;;;;;6.50;1.65;;;;;;;;;;5034335;28;20025;-69
2021/10/11 13:17:37;;;;;;;3.90;1.48;;;;;;;;;;5029200;28;20032;-67
2021/10/11 13:20:03;;;;;;;5.80;1.77;;;;;;;;;;5030126;28;20696;-68
2021/10/11 13:22:30;;;;;;;6.35;1.95;;;;;;;;;;5030713;28;20068;-68
2021/10/11 13:24:56;;;;;;;5.50;1.40;;;;;;;;;;5014205;28;20030;-68
2021/10/11 13:27:21;;;;;;;4.80;1.50;;;;;;;;;;5029456;28;20433;-67
2021/10/11 14:28:41;;;;;;;7.82;2.60;;;;;;;;;;5024564;28;20032;-70
2021/10/11 14:31:14;;;;;;;5.78;1.98;;;;;;;;;;5031950;28;20389;-68
2021/10/11 15:58:40;;;;;;;6.53;0.90;;;;;;;;;;5046186;28;20052;-69
2021/10/11 16:04:06;;;;;;;1.20;0.50;;;;;;;;;;5034567;28;20048;-68
2021/10/11 16:06:31;;;;;;;2.22;0.50;;;;;;;;;;5024289;28;20044;-68
2021/10/11 16:08:57;;;;;;;1.77;0.50;;;;;;;;;;5026859;28;20461;-68
2021/10/11 16:11:22;;;;;;;3.70;0.40;;;;;;;;;;5025164;28;20033;-68
2021/10/11 16:13:48;;;;;;;2.70;0.50;;;;;;;;;;5025199;28;20036;-68
2021/10/11 16:16:14;;;;;;;1.73;0.60;;;;;;;;;;5026755;28;20541;-69
2021/10/11 16:18:40;;;;;;;3.67;0.40;;;;;;;;;;5030184;28;20064;-69
2021/10/11 16:21:07;;;;;;;1.42;0.47;;;;;;;;;;5030426;28;20053;-69
2021/10/11 16:23:37;;;;;;;3.47;0.47;;;;;;;;;;5027272;28;20032;-69
2021/10/11 16:26:04;;;;;;;1.55;0.30;;;;;;;;;;5026404;28;20021;-69
2021/10/11 16:28:31;;;;;;;2.65;0.40;;;;;;;;;;5027696;28;20051;-69
2021/10/11 16:30:58;;;;;;;2.17;0.50;;;;;;;;;;5029511;28;20901;-68
2021/10/11 16:33:23;;;;;;;1.10;0.40;;;;;;;;;;5027139;28;20087;-68
2021/10/11 16:35:49;;;;;;;1.98;0.50;;;;;;;;;;5029990;28;20457;-68
2021/10/11 16:38:14;;;;;;;1.55;0.32;;;;;;;;;;5028991;28;20071;-68
2021/10/11 16:40:40;;;;;;;3.13;0.55;;;;;;;;;;5027685;28;20496;-68
2021/10/11 16:43:07;;;;;;;3.17;0.50;;;;;;;;;;5026991;28;20033;-68
2021/10/11 16:45:35;;;;;;;6.28;0.70;;;;;;;;;;5028269;28;20420;-68
2021/10/11 16:48:01;;;;;;;3.58;1.17;;;;;;;;;;5028253;28;20108;-68
2021/10/11 16:50:26;;;;;;;4.28;0.88;;;;;;;;;;5031023;28;20032;-68
2021/10/11 16:52:52;;;;;;;4.65;0.60;;;;;;;;;;5035191;28;20029;-69
2021/10/11 16:55:18;;;;;;;5.57;0.70;;;;;;;;;;5036606;28;20465;-69
2021/10/11 16:57:45;;;;;;;4.35;1.52;;;;;;;;;;5034850;28;20037;-68
2021/10/11 17:00:13;;;;;;;6.07;1.70;;;;;;;;;;5018695;28;20129;-68